LFGD weather

CLOSED Arbois Airfield
Franche-Comté, France

Public forecast

Using degrees Celsius for public forecast. Weather courtesy of forecast.io.

METAR (pilot weather report)

Closest report is Dole-Tavaux Airport, 15.2 nm (28.2 km) WNW. Retrieved 2019/07/20 19:30 UTC (0 seconds ago):

LFGJ 201930Z AUTO 20013G26KT 180V240 9999 ///CB 28/13 Q1016

TAF (pilot weather forecast)

Forecast is more than 12 hours old.

Closest forecast is Dijon-Bourgogne Airport, 34.5 nm (63.9 km) NW. Retrieved 2015/06/01 00:11 UTC (4 years ago):

TAF LFSD 010600Z 0100/0124 CNL